sensor_id;sensor_type;location;lat;lon;timestamp;P1;durP1;ratioP1;P2;durP2;ratioP2
18407;SDS011;9330;52.210;21.174;2022-09-30T00:01:00;38.72;;;28.27;;
18407;SDS011;9330;52.210;21.174;2022-09-30T00:03:28;35.55;;;27.80;;
18407;SDS011;9330;52.210;21.174;2022-09-30T00:05:57;34.65;;;27.95;;
18407;SDS011;9330;52.210;21.174;2022-09-30T00:08:43;35.67;;;27.88;;
18407;SDS011;9330;52.210;21.174;2022-09-30T00:11:11;37.63;;;28.20;;
18407;SDS011;9330;52.210;21.174;2022-09-30T00:13:43;37.15;;;28.30;;
18407;SDS011;9330;52.210;21.174;2022-09-30T00:16:17;39.65;;;28.23;;
18407;SDS011;9330;52.210;21.174;2022-09-30T00:18:55;38.92;;;28.38;;
18407;SDS011;9330;52.210;21.174;2022-09-30T00:27:45;33.85;;;26.67;;
18407;SDS011;9330;52.210;21.174;2022-09-30T00:30:17;36.53;;;28.02;;
18407;SDS011;9330;52.210;21.174;2022-09-30T00:32:48;37.15;;;28.30;;
18407;SDS011;9330;52.210;21.174;2022-09-30T00:35:28;37.53;;;28.13;;
18407;SDS011;9330;52.210;21.174;2022-09-30T00:37:59;41.30;;;28.02;;
18407;SDS011;9330;52.210;21.174;2022-09-30T00:40:31;38.17;;;27.52;;
18407;SDS011;9330;52.210;21.174;2022-09-30T00:43:10;37.25;;;26.17;;
18407;SDS011;9330;52.210;21.174;2022-09-30T00:45:47;37.53;;;28.33;;
18407;SDS011;9330;52.210;21.174;2022-09-30T00:48:21;37.80;;;28.52;;
18407;SDS011;9330;52.210;21.174;2022-09-30T00:50:53;36.08;;;27.05;;
18407;SDS011;9330;52.210;21.174;2022-09-30T00:53:22;35.58;;;27.40;;
18407;SDS011;9330;52.210;21.174;2022-09-30T00:56:02;38.28;;;27.10;;
18407;SDS011;9330;52.210;21.174;2022-09-30T00:58:34;36.72;;;27.63;;
18407;SDS011;9330;52.210;21.174;2022-09-30T01:01:19;38.60;;;28.23;;
18407;SDS011;9330;52.210;21.174;2022-09-30T01:03:49;38.20;;;27.55;;
18407;SDS011;9330;52.210;21.174;2022-09-30T01:06:22;35.60;;;27.55;;
18407;SDS011;9330;52.210;21.174;2022-09-30T01:09:00;36.78;;;28.33;;
18407;SDS011;9330;52.210;21.174;2022-09-30T01:11:30;35.97;;;27.08;;
18407;SDS011;9330;52.210;21.174;2022-09-30T01:14:01;36.28;;;28.08;;
18407;SDS011;9330;52.210;21.174;2022-09-30T01:16:43;32.30;;;25.40;;
18407;SDS011;9330;52.210;21.174;2022-09-30T01:23:02;31.27;;;24.85;;
18407;SDS011;9330;52.210;21.174;2022-09-30T01:26:02;31.52;;;25.02;;
18407;SDS011;9330;52.210;21.174;2022-09-30T01:32:19;31.60;;;25.13;;
18407;SDS011;9330;52.210;21.174;2022-09-30T01:35:03;30.95;;;24.88;;
18407;SDS011;9330;52.210;21.174;2022-09-30T01:37:41;33.38;;;24.10;;
18407;SDS011;9330;52.210;21.174;2022-09-30T01:40:17;34.22;;;25.85;;
18407;SDS011;9330;52.210;21.174;2022-09-30T01:42:50;30.85;;;24.35;;
18407;SDS011;9330;52.210;21.174;2022-09-30T01:45:28;33.03;;;24.10;;
18407;SDS011;9330;52.210;21.174;2022-09-30T01:48:01;32.25;;;24.60;;
18407;SDS011;9330;52.210;21.174;2022-09-30T01:50:36;31.08;;;23.65;;
18407;SDS011;9330;52.210;21.174;2022-09-30T01:53:13;28.67;;;23.70;;
18407;SDS011;9330;52.210;21.174;2022-09-30T01:55:59;30.60;;;23.60;;
18407;SDS011;9330;52.210;21.174;2022-09-30T01:58:32;29.67;;;23.35;;
18407;SDS011;9330;52.210;21.174;2022-09-30T02:01:06;28.75;;;23.08;;
18407;SDS011;9330;52.210;21.174;2022-09-30T02:03:41;30.80;;;23.90;;
18407;SDS011;9330;52.210;21.174;2022-09-30T02:06:14;31.55;;;24.48;;
18407;SDS011;9330;52.210;21.174;2022-09-30T02:08:46;33.95;;;24.92;;
18407;SDS011;9330;52.210;21.174;2022-09-30T02:11:19;31.98;;;24.40;;
18407;SDS011;9330;52.210;21.174;2022-09-30T02:13:58;33.63;;;25.05;;
18407;SDS011;9330;52.210;21.174;2022-09-30T02:16:39;33.53;;;24.98;;
18407;SDS011;9330;52.210;21.174;2022-09-30T02:22:20;30.98;;;24.52;;
18407;SDS011;9330;52.210;21.174;2022-09-30T02:24:53;35.33;;;25.77;;
18407;SDS011;9330;52.210;21.174;2022-09-30T02:27:28;35.67;;;24.65;;
18407;SDS011;9330;52.210;21.174;2022-09-30T02:30:09;35.33;;;25.10;;
18407;SDS011;9330;52.210;21.174;2022-09-30T02:32:55;31.63;;;24.45;;
18407;SDS011;9330;52.210;21.174;2022-09-30T02:35:44;30.70;;;24.30;;
18407;SDS011;9330;52.210;21.174;2022-09-30T02:38:25;30.83;;;23.42;;
18407;SDS011;9330;52.210;21.174;2022-09-30T02:41:16;34.53;;;24.92;;
18407;SDS011;9330;52.210;21.174;2022-09-30T02:43:51;31.95;;;23.75;;
18407;SDS011;9330;52.210;21.174;2022-09-30T02:46:22;34.00;;;24.33;;
18407;SDS011;9330;52.210;21.174;2022-09-30T02:49:01;30.85;;;23.33;;
18407;SDS011;9330;52.210;21.174;2022-09-30T02:51:39;31.65;;;23.42;;
18407;SDS011;9330;52.210;21.174;2022-09-30T02:54:16;33.88;;;24.60;;
18407;SDS011;9330;52.210;21.174;2022-09-30T02:56:53;33.28;;;24.50;;
18407;SDS011;9330;52.210;21.174;2022-09-30T02:59:26;34.80;;;25.02;;
18407;SDS011;9330;52.210;21.174;2022-09-30T03:01:55;30.30;;;24.08;;
18407;SDS011;9330;52.210;21.174;2022-09-30T03:04:26;32.50;;;24.63;;
18407;SDS011;9330;52.210;21.174;2022-09-30T03:06:59;33.35;;;24.40;;
18407;SDS011;9330;52.210;21.174;2022-09-30T03:09:29;36.58;;;24.55;;
18407;SDS011;9330;52.210;21.174;2022-09-30T03:12:09;31.20;;;25.08;;
18407;SDS011;9330;52.210;21.174;2022-09-30T03:14:51;32.45;;;24.02;;
18407;SDS011;9330;52.210;21.174;2022-09-30T03:20:38;34.20;;;24.40;;
18407;SDS011;9330;52.210;21.174;2022-09-30T03:26:35;35.75;;;26.80;;
18407;SDS011;9330;52.210;21.174;2022-09-30T03:29:12;32.95;;;24.58;;
18407;SDS011;9330;52.210;21.174;2022-09-30T03:31:53;33.80;;;25.30;;
18407;SDS011;9330;52.210;21.174;2022-09-30T03:34:37;34.72;;;26.15;;
18407;SDS011;9330;52.210;21.174;2022-09-30T03:37:31;38.00;;;27.75;;
18407;SDS011;9330;52.210;21.174;2022-09-30T03:40:21;33.55;;;25.63;;
18407;SDS011;9330;52.210;21.174;2022-09-30T03:43:08;36.00;;;27.48;;
18407;SDS011;9330;52.210;21.174;2022-09-30T03:45:47;36.22;;;27.00;;
18407;SDS011;9330;52.210;21.174;2022-09-30T03:48:28;36.17;;;27.73;;
18407;SDS011;9330;52.210;21.174;2022-09-30T03:51:00;35.60;;;27.33;;
18407;SDS011;9330;52.210;21.174;2022-09-30T03:53:30;36.28;;;28.52;;
18407;SDS011;9330;52.210;21.174;2022-09-30T03:56:05;38.53;;;26.70;;
18407;SDS011;9330;52.210;21.174;2022-09-30T04:01:27;38.45;;;27.75;;
18407;SDS011;9330;52.210;21.174;2022-09-30T04:03:55;35.90;;;28.20;;
18407;SDS011;9330;52.210;21.174;2022-09-30T04:06:31;37.25;;;28.23;;
18407;SDS011;9330;52.210;21.174;2022-09-30T04:09:01;37.28;;;27.85;;
18407;SDS011;9330;52.210;21.174;2022-09-30T04:11:46;40.40;;;29.33;;
18407;SDS011;9330;52.210;21.174;2022-09-30T04:15:03;35.83;;;27.42;;
18407;SDS011;9330;52.210;21.174;2022-09-30T04:17:41;39.25;;;27.73;;
18407;SDS011;9330;52.210;21.174;2022-09-30T04:20:14;40.80;;;29.67;;
18407;SDS011;9330;52.210;21.174;2022-09-30T04:22:55;37.25;;;28.60;;
18407;SDS011;9330;52.210;21.174;2022-09-30T04:25:32;38.65;;;28.00;;
18407;SDS011;9330;52.210;21.174;2022-09-30T04:28:05;38.13;;;28.45;;
18407;SDS011;9330;52.210;21.174;2022-09-30T04:33:46;36.08;;;28.13;;
18407;SDS011;9330;52.210;21.174;2022-09-30T04:36:30;37.70;;;27.20;;
18407;SDS011;9330;52.210;21.174;2022-09-30T04:39:10;35.45;;;27.60;;
18407;SDS011;9330;52.210;21.174;2022-09-30T04:41:43;36.90;;;27.92;;
18407;SDS011;9330;52.210;21.174;2022-09-30T04:44:11;39.30;;;27.85;;
18407;SDS011;9330;52.210;21.174;2022-09-30T04:46:44;35.28;;;27.40;;
18407;SDS011;9330;52.210;21.174;2022-09-30T04:49:45;38.38;;;27.08;;
18407;SDS011;9330;52.210;21.174;2022-09-30T04:52:27;39.38;;;26.88;;
18407;SDS011;9330;52.210;21.174;2022-09-30T04:54:55;36.63;;;27.38;;
18407;SDS011;9330;52.210;21.174;2022-09-30T04:57:33;34.60;;;26.33;;
18407;SDS011;9330;52.210;21.174;2022-09-30T05:00:08;34.28;;;26.50;;
18407;SDS011;9330;52.210;21.174;2022-09-30T05:03:11;34.40;;;25.27;;
18407;SDS011;9330;52.210;21.174;2022-09-30T05:05:42;36.50;;;26.80;;
18407;SDS011;9330;52.210;21.174;2022-09-30T05:08:10;34.63;;;25.45;;
18407;SDS011;9330;52.210;21.174;2022-09-30T05:10:38;33.58;;;25.73;;
18407;SDS011;9330;52.210;21.174;2022-09-30T05:13:17;36.22;;;26.98;;
18407;SDS011;9330;52.210;21.174;2022-09-30T05:16:08;34.10;;;26.38;;
18407;SDS011;9330;52.210;21.174;2022-09-30T05:21:41;33.15;;;24.92;;
18407;SDS011;9330;52.210;21.174;2022-09-30T05:24:10;38.05;;;26.08;;
18407;SDS011;9330;52.210;21.174;2022-09-30T05:26:39;34.15;;;25.05;;
18407;SDS011;9330;52.210;21.174;2022-09-30T05:29:15;36.33;;;25.73;;
18407;SDS011;9330;52.210;21.174;2022-09-30T05:31:55;32.63;;;25.17;;
18407;SDS011;9330;52.210;21.174;2022-09-30T05:34:46;33.40;;;25.98;;
18407;SDS011;9330;52.210;21.174;2022-09-30T05:37:24;34.22;;;25.85;;
18407;SDS011;9330;52.210;21.174;2022-09-30T05:40:07;32.35;;;25.30;;
18407;SDS011;9330;52.210;21.174;2022-09-30T05:42:35;32.13;;;24.65;;
18407;SDS011;9330;52.210;21.174;2022-09-30T05:45:07;32.67;;;24.30;;
18407;SDS011;9330;52.210;21.174;2022-09-30T05:47:42;30.92;;;23.50;;
18407;SDS011;9330;52.210;21.174;2022-09-30T05:50:32;30.05;;;23.10;;
18407;SDS011;9330;52.210;21.174;2022-09-30T05:53:03;28.52;;;23.85;;
18407;SDS011;9330;52.210;21.174;2022-09-30T05:55:50;30.92;;;23.15;;
18407;SDS011;9330;52.210;21.174;2022-09-30T05:58:38;29.85;;;22.80;;
18407;SDS011;9330;52.210;21.174;2022-09-30T06:01:08;28.90;;;23.73;;
18407;SDS011;9330;52.210;21.174;2022-09-30T06:03:38;29.73;;;23.85;;
18407;SDS011;9330;52.210;21.174;2022-09-30T06:06:17;28.00;;;22.75;;
18407;SDS011;9330;52.210;21.174;2022-09-30T06:08:47;27.60;;;22.92;;
18407;SDS011;9330;52.210;21.174;2022-09-30T06:11:15;29.85;;;23.45;;
18407;SDS011;9330;52.210;21.174;2022-09-30T06:13:46;29.65;;;23.60;;
18407;SDS011;9330;52.210;21.174;2022-09-30T06:16:17;32.70;;;24.73;;
18407;SDS011;9330;52.210;21.174;2022-09-30T06:18:48;27.98;;;22.42;;
18407;SDS011;9330;52.210;21.174;2022-09-30T06:21:15;30.00;;;23.08;;
18407;SDS011;9330;52.210;21.174;2022-09-30T06:23:43;28.33;;;22.35;;
18407;SDS011;9330;52.210;21.174;2022-09-30T06:26:12;30.30;;;22.80;;
18407;SDS011;9330;52.210;21.174;2022-09-30T06:28:40;29.83;;;22.73;;
18407;SDS011;9330;52.210;21.174;2022-09-30T06:31:08;27.98;;;22.17;;
18407;SDS011;9330;52.210;21.174;2022-09-30T06:33:35;30.65;;;24.35;;
18407;SDS011;9330;52.210;21.174;2022-09-30T06:36:03;27.67;;;22.35;;
18407;SDS011;9330;52.210;21.174;2022-09-30T06:38:31;27.88;;;22.67;;
18407;SDS011;9330;52.210;21.174;2022-09-30T06:41:01;27.02;;;22.73;;
18407;SDS011;9330;52.210;21.174;2022-09-30T06:43:30;29.23;;;22.92;;
18407;SDS011;9330;52.210;21.174;2022-09-30T06:45:57;29.13;;;23.42;;
18407;SDS011;9330;52.210;21.174;2022-09-30T06:48:25;29.17;;;23.90;;
18407;SDS011;9330;52.210;21.174;2022-09-30T06:50:56;28.02;;;23.13;;
18407;SDS011;9330;52.210;21.174;2022-09-30T06:53:23;28.73;;;22.48;;
18407;SDS011;9330;52.210;21.174;2022-09-30T06:55:53;32.03;;;22.63;;
18407;SDS011;9330;52.210;21.174;2022-09-30T06:58:21;29.77;;;23.00;;
18407;SDS011;9330;52.210;21.174;2022-09-30T07:00:56;30.55;;;23.70;;
18407;SDS011;9330;52.210;21.174;2022-09-30T07:03:24;28.35;;;22.33;;
18407;SDS011;9330;52.210;21.174;2022-09-30T07:05:54;28.42;;;23.23;;
18407;SDS011;9330;52.210;21.174;2022-09-30T07:08:22;29.23;;;23.88;;
18407;SDS011;9330;52.210;21.174;2022-09-30T07:10:53;26.02;;;22.48;;
18407;SDS011;9330;52.210;21.174;2022-09-30T07:13:21;27.38;;;22.38;;
18407;SDS011;9330;52.210;21.174;2022-09-30T07:15:48;24.60;;;20.67;;
18407;SDS011;9330;52.210;21.174;2022-09-30T07:18:19;28.52;;;21.83;;
18407;SDS011;9330;52.210;21.174;2022-09-30T07:20:47;26.38;;;21.33;;
18407;SDS011;9330;52.210;21.174;2022-09-30T07:23:14;24.30;;;20.15;;
18407;SDS011;9330;52.210;21.174;2022-09-30T07:25:47;25.67;;;20.63;;
18407;SDS011;9330;52.210;21.174;2022-09-30T07:28:17;22.65;;;19.10;;
18407;SDS011;9330;52.210;21.174;2022-09-30T07:30:45;25.85;;;19.52;;
18407;SDS011;9330;52.210;21.174;2022-09-30T07:33:13;24.20;;;19.77;;
18407;SDS011;9330;52.210;21.174;2022-09-30T07:35:43;20.90;;;17.20;;
18407;SDS011;9330;52.210;21.174;2022-09-30T07:38:17;17.75;;;15.85;;
18407;SDS011;9330;52.210;21.174;2022-09-30T07:40:55;18.42;;;15.35;;
18407;SDS011;9330;52.210;21.174;2022-09-30T07:43:24;18.55;;;15.57;;
18407;SDS011;9330;52.210;21.174;2022-09-30T07:46:01;18.10;;;15.70;;
18407;SDS011;9330;52.210;21.174;2022-09-30T07:48:35;18.92;;;16.60;;
18407;SDS011;9330;52.210;21.174;2022-09-30T07:51:15;19.58;;;16.75;;
18407;SDS011;9330;52.210;21.174;2022-09-30T07:53:46;20.35;;;16.75;;
18407;SDS011;9330;52.210;21.174;2022-09-30T07:56:15;19.15;;;16.23;;
18407;SDS011;9330;52.210;21.174;2022-09-30T07:58:43;19.63;;;16.77;;
18407;SDS011;9330;52.210;21.174;2022-09-30T08:01:11;17.52;;;15.20;;
18407;SDS011;9330;52.210;21.174;2022-09-30T08:03:56;19.25;;;15.93;;
18407;SDS011;9330;52.210;21.174;2022-09-30T08:06:47;16.02;;;13.65;;
18407;SDS011;9330;52.210;21.174;2022-09-30T08:09:18;16.50;;;14.18;;
18407;SDS011;9330;52.210;21.174;2022-09-30T08:11:47;18.25;;;14.82;;
18407;SDS011;9330;52.210;21.174;2022-09-30T08:14:15;21.15;;;15.50;;
18407;SDS011;9330;52.210;21.174;2022-09-30T08:16:51;18.30;;;14.77;;
18407;SDS011;9330;52.210;21.174;2022-09-30T08:19:20;19.95;;;15.05;;
18407;SDS011;9330;52.210;21.174;2022-09-30T08:21:53;16.67;;;14.80;;
18407;SDS011;9330;52.210;21.174;2022-09-30T08:24:22;13.80;;;11.80;;
18407;SDS011;9330;52.210;21.174;2022-09-30T08:26:51;13.05;;;11.70;;
18407;SDS011;9330;52.210;21.174;2022-09-30T08:29:18;17.33;;;13.77;;
18407;SDS011;9330;52.210;21.174;2022-09-30T08:31:46;26.15;;;22.92;;
18407;SDS011;9330;52.210;21.174;2022-09-30T08:34:15;18.27;;;15.77;;
18407;SDS011;9330;52.210;21.174;2022-09-30T08:36:46;17.25;;;15.25;;
18407;SDS011;9330;52.210;21.174;2022-09-30T08:39:14;17.80;;;16.00;;
18407;SDS011;9330;52.210;21.174;2022-09-30T08:41:48;16.92;;;15.13;;
18407;SDS011;9330;52.210;21.174;2022-09-30T08:44:31;15.32;;;13.73;;
18407;SDS011;9330;52.210;21.174;2022-09-30T08:47:09;12.50;;;10.38;;
18407;SDS011;9330;52.210;21.174;2022-09-30T08:49:53;11.77;;;10.15;;
18407;SDS011;9330;52.210;21.174;2022-09-30T08:52:28;11.52;;;10.35;;
18407;SDS011;9330;52.210;21.174;2022-09-30T08:55:01;11.65;;;10.45;;
18407;SDS011;9330;52.210;21.174;2022-09-30T08:57:33;13.48;;;10.95;;
18407;SDS011;9330;52.210;21.174;2022-09-30T09:00:05;11.82;;;9.65;;
18407;SDS011;9330;52.210;21.174;2022-09-30T09:02:36;12.98;;;9.50;;
18407;SDS011;9330;52.210;21.174;2022-09-30T09:05:10;10.52;;;9.10;;
18407;SDS011;9330;52.210;21.174;2022-09-30T09:07:43;12.48;;;10.63;;
18407;SDS011;9330;52.210;21.174;2022-09-30T09:10:23;10.23;;;9.13;;
18407;SDS011;9330;52.210;21.174;2022-09-30T09:12:58;11.38;;;9.60;;
18407;SDS011;9330;52.210;21.174;2022-09-30T09:15:36;10.45;;;8.93;;
18407;SDS011;9330;52.210;21.174;2022-09-30T09:18:24;10.98;;;9.60;;
18407;SDS011;9330;52.210;21.174;2022-09-30T09:21:12;11.70;;;9.07;;
18407;SDS011;9330;52.210;21.174;2022-09-30T09:23:46;9.80;;;8.80;;
18407;SDS011;9330;52.210;21.174;2022-09-30T09:26:16;10.60;;;9.52;;
18407;SDS011;9330;52.210;21.174;2022-09-30T09:28:44;8.90;;;7.82;;
18407;SDS011;9330;52.210;21.174;2022-09-30T09:31:21;9.98;;;7.43;;
18407;SDS011;9330;52.210;21.174;2022-09-30T09:33:49;8.55;;;7.18;;
18407;SDS011;9330;52.210;21.174;2022-09-30T09:36:21;9.30;;;7.80;;
18407;SDS011;9330;52.210;21.174;2022-09-30T09:39:04;8.25;;;6.90;;
18407;SDS011;9330;52.210;21.174;2022-09-30T09:41:43;8.18;;;6.43;;
18407;SDS011;9330;52.210;21.174;2022-09-30T09:44:18;8.73;;;7.03;;
18407;SDS011;9330;52.210;21.174;2022-09-30T09:46:52;6.95;;;6.25;;
18407;SDS011;9330;52.210;21.174;2022-09-30T09:49:30;7.97;;;6.45;;
18407;SDS011;9330;52.210;21.174;2022-09-30T09:55:11;7.40;;;6.40;;
18407;SDS011;9330;52.210;21.174;2022-09-30T09:57:40;8.38;;;6.05;;
18407;SDS011;9330;52.210;21.174;2022-09-30T10:00:07;8.07;;;6.70;;
18407;SDS011;9330;52.210;21.174;2022-09-30T10:02:57;6.63;;;5.93;;
18407;SDS011;9330;52.210;21.174;2022-09-30T10:05:26;6.53;;;5.93;;
18407;SDS011;9330;52.210;21.174;2022-09-30T10:08:07;7.15;;;6.47;;
18407;SDS011;9330;52.210;21.174;2022-09-30T10:10:47;8.20;;;6.53;;
18407;SDS011;9330;52.210;21.174;2022-09-30T10:13:19;7.70;;;6.18;;
18407;SDS011;9330;52.210;21.174;2022-09-30T10:15:48;8.55;;;6.15;;
18407;SDS011;9330;52.210;21.174;2022-09-30T10:18:19;6.70;;;6.10;;
18407;SDS011;9330;52.210;21.174;2022-09-30T10:20:51;6.57;;;5.88;;
18407;SDS011;9330;52.210;21.174;2022-09-30T10:23:21;6.70;;;6.00;;
18407;SDS011;9330;52.210;21.174;2022-09-30T10:26:05;6.57;;;5.43;;
18407;SDS011;9330;52.210;21.174;2022-09-30T10:28:45;7.00;;;6.05;;
18407;SDS011;9330;52.210;21.174;2022-09-30T10:31:14;6.30;;;5.70;;
18407;SDS011;9330;52.210;21.174;2022-09-30T10:33:47;6.53;;;5.93;;
18407;SDS011;9330;52.210;21.174;2022-09-30T10:36:20;5.55;;;4.90;;
18407;SDS011;9330;52.210;21.174;2022-09-30T10:38:56;5.43;;;4.85;;
18407;SDS011;9330;52.210;21.174;2022-09-30T10:41:25;6.47;;;5.72;;
18407;SDS011;9330;52.210;21.174;2022-09-30T10:43:56;6.00;;;5.40;;
18407;SDS011;9330;52.210;21.174;2022-09-30T10:46:27;6.18;;;5.22;;
18407;SDS011;9330;52.210;21.174;2022-09-30T10:48:56;8.52;;;5.53;;
18407;SDS011;9330;52.210;21.174;2022-09-30T10:51:25;5.72;;;5.00;;
18407;SDS011;9330;52.210;21.174;2022-09-30T10:53:58;6.60;;;6.00;;
18407;SDS011;9330;52.210;21.174;2022-09-30T10:56:37;6.95;;;6.25;;
18407;SDS011;9330;52.210;21.174;2022-09-30T10:59:09;8.18;;;7.40;;
18407;SDS011;9330;52.210;21.174;2022-09-30T11:01:55;6.30;;;5.70;;
18407;SDS011;9330;52.210;21.174;2022-09-30T11:04:26;6.50;;;5.90;;
18407;SDS011;9330;52.210;21.174;2022-09-30T11:07:00;6.47;;;4.90;;
18407;SDS011;9330;52.210;21.174;2022-09-30T11:09:39;5.65;;;4.60;;
18407;SDS011;9330;52.210;21.174;2022-09-30T11:12:13;8.25;;;7.43;;
18407;SDS011;9330;52.210;21.174;2022-09-30T11:14:50;5.78;;;5.15;;
18407;SDS011;9330;52.210;21.174;2022-09-30T11:17:28;6.38;;;5.53;;
18407;SDS011;9330;52.210;21.174;2022-09-30T11:20:05;7.35;;;5.97;;
18407;SDS011;9330;52.210;21.174;2022-09-30T11:22:44;6.50;;;5.82;;
18407;SDS011;9330;52.210;21.174;2022-09-30T11:25:16;6.65;;;5.38;;
18407;SDS011;9330;52.210;21.174;2022-09-30T11:27:54;7.28;;;6.13;;
18407;SDS011;9330;52.210;21.174;2022-09-30T11:30:34;5.90;;;5.30;;
18407;SDS011;9330;52.210;21.174;2022-09-30T11:33:15;6.80;;;6.10;;
18407;SDS011;9330;52.210;21.174;2022-09-30T11:35:58;6.57;;;5.82;;
18407;SDS011;9330;52.210;21.174;2022-09-30T11:38:43;6.60;;;5.60;;
18407;SDS011;9330;52.210;21.174;2022-09-30T11:41:24;7.38;;;6.68;;
18407;SDS011;9330;52.210;21.174;2022-09-30T11:43:56;9.27;;;8.35;;
18407;SDS011;9330;52.210;21.174;2022-09-30T11:46:44;6.95;;;6.25;;
18407;SDS011;9330;52.210;21.174;2022-09-30T11:49:24;8.48;;;5.95;;
18407;SDS011;9330;52.210;21.174;2022-09-30T11:52:07;7.70;;;5.80;;
18407;SDS011;9330;52.210;21.174;2022-09-30T11:54:48;6.55;;;5.65;;
18407;SDS011;9330;52.210;21.174;2022-09-30T11:57:28;7.07;;;5.93;;
18407;SDS011;9330;52.210;21.174;2022-09-30T12:00:00;7.38;;;6.60;;
18407;SDS011;9330;52.210;21.174;2022-09-30T12:02:35;8.32;;;7.50;;
18407;SDS011;9330;52.210;21.174;2022-09-30T12:05:05;8.20;;;7.38;;
18407;SDS011;9330;52.210;21.174;2022-09-30T12:07:36;7.50;;;6.75;;
18407;SDS011;9330;52.210;21.174;2022-09-30T12:10:13;6.90;;;6.07;;
18407;SDS011;9330;52.210;21.174;2022-09-30T12:12:46;5.90;;;5.22;;
18407;SDS011;9330;52.210;21.174;2022-09-30T12:15:19;5.68;;;5.13;;
18407;SDS011;9330;52.210;21.174;2022-09-30T12:17:51;7.90;;;7.00;;
18407;SDS011;9330;52.210;21.174;2022-09-30T12:20:24;10.00;;;7.63;;
18407;SDS011;9330;52.210;21.174;2022-09-30T12:22:54;8.90;;;8.00;;
18407;SDS011;9330;52.210;21.174;2022-09-30T12:25:27;6.15;;;5.30;;
18407;SDS011;9330;52.210;21.174;2022-09-30T12:27:59;7.13;;;6.32;;
18407;SDS011;9330;52.210;21.174;2022-09-30T12:30:54;6.22;;;4.63;;
18407;SDS011;9330;52.210;21.174;2022-09-30T12:33:36;4.65;;;3.88;;
18407;SDS011;9330;52.210;21.174;2022-09-30T12:36:32;5.53;;;3.67;;
18407;SDS011;9330;52.210;21.174;2022-09-30T12:42:16;4.90;;;4.13;;
18407;SDS011;9330;52.210;21.174;2022-09-30T12:45:08;4.07;;;3.50;;
18407;SDS011;9330;52.210;21.174;2022-09-30T12:47:57;5.35;;;3.58;;
18407;SDS011;9330;52.210;21.174;2022-09-30T12:50:33;3.33;;;3.00;;
18407;SDS011;9330;52.210;21.174;2022-09-30T12:53:09;3.97;;;3.30;;
18407;SDS011;9330;52.210;21.174;2022-09-30T12:55:40;3.53;;;3.08;;
18407;SDS011;9330;52.210;21.174;2022-09-30T12:58:12;3.50;;;2.70;;
18407;SDS011;9330;52.210;21.174;2022-09-30T13:00:56;4.32;;;2.92;;
18407;SDS011;9330;52.210;21.174;2022-09-30T13:03:25;4.03;;;3.17;;
18407;SDS011;9330;52.210;21.174;2022-09-30T13:05:56;2.70;;;2.50;;
18407;SDS011;9330;52.210;21.174;2022-09-30T13:11:33;3.83;;;3.08;;
18407;SDS011;9330;52.210;21.174;2022-09-30T13:14:17;2.78;;;2.50;;
18407;SDS011;9330;52.210;21.174;2022-09-30T13:19:51;4.85;;;2.72;;
18407;SDS011;9330;52.210;21.174;2022-09-30T13:25:26;4.47;;;3.08;;
18407;SDS011;9330;52.210;21.174;2022-09-30T13:28:26;3.50;;;3.20;;
18407;SDS011;9330;52.210;21.174;2022-09-30T13:33:43;5.15;;;3.70;;
18407;SDS011;9330;52.210;21.174;2022-09-30T13:36:16;4.07;;;3.60;;
18407;SDS011;9330;52.210;21.174;2022-09-30T13:39:06;4.03;;;3.58;;
18407;SDS011;9330;52.210;21.174;2022-09-30T13:41:42;5.80;;;3.70;;
18407;SDS011;9330;52.210;21.174;2022-09-30T13:44:13;4.22;;;3.78;;
18407;SDS011;9330;52.210;21.174;2022-09-30T13:46:45;5.00;;;4.50;;
18407;SDS011;9330;52.210;21.174;2022-09-30T13:49:15;8.80;;;7.63;;
18407;SDS011;9330;52.210;21.174;2022-09-30T13:51:47;10.82;;;9.73;;
18407;SDS011;9330;52.210;21.174;2022-09-30T13:54:17;5.80;;;4.70;;
18407;SDS011;9330;52.210;21.174;2022-09-30T13:56:56;5.22;;;4.72;;
18407;SDS011;9330;52.210;21.174;2022-09-30T13:59:28;5.38;;;4.72;;
18407;SDS011;9330;52.210;21.174;2022-09-30T14:05:11;5.68;;;4.70;;
18407;SDS011;9330;52.210;21.174;2022-09-30T14:08:11;6.15;;;5.45;;
18407;SDS011;9330;52.210;21.174;2022-09-30T14:11:00;4.93;;;4.05;;
18407;SDS011;9330;52.210;21.174;2022-09-30T14:13:41;5.20;;;4.70;;
18407;SDS011;9330;52.210;21.174;2022-09-30T14:22:06;6.18;;;5.25;;
18407;SDS011;9330;52.210;21.174;2022-09-30T14:24:35;7.22;;;5.50;;
18407;SDS011;9330;52.210;21.174;2022-09-30T14:27:12;7.10;;;6.07;;
18407;SDS011;9330;52.210;21.174;2022-09-30T14:30:08;7.03;;;5.60;;
18407;SDS011;9330;52.210;21.174;2022-09-30T14:32:42;6.15;;;5.43;;
18407;SDS011;9330;52.210;21.174;2022-09-30T14:38:33;7.95;;;5.82;;
18407;SDS011;9330;52.210;21.174;2022-09-30T14:41:02;6.78;;;5.05;;
18407;SDS011;9330;52.210;21.174;2022-09-30T14:43:35;5.55;;;4.35;;
18407;SDS011;9330;52.210;21.174;2022-09-30T14:46:05;4.78;;;4.25;;
18407;SDS011;9330;52.210;21.174;2022-09-30T14:48:40;6.05;;;5.45;;
18407;SDS011;9330;52.210;21.174;2022-09-30T14:51:10;5.38;;;4.88;;
18407;SDS011;9330;52.210;21.174;2022-09-30T14:53:41;8.13;;;5.45;;
18407;SDS011;9330;52.210;21.174;2022-09-30T14:56:18;6.38;;;5.15;;
18407;SDS011;9330;52.210;21.174;2022-09-30T14:58:48;6.28;;;4.80;;
18407;SDS011;9330;52.210;21.174;2022-09-30T15:01:17;5.20;;;4.70;;
18407;SDS011;9330;52.210;21.174;2022-09-30T15:03:50;6.82;;;4.57;;
18407;SDS011;9330;52.210;21.174;2022-09-30T15:06:20;5.60;;;4.40;;
18407;SDS011;9330;52.210;21.174;2022-09-30T15:08:49;5.88;;;4.28;;
18407;SDS011;9330;52.210;21.174;2022-09-30T15:11:17;4.85;;;4.35;;
18407;SDS011;9330;52.210;21.174;2022-09-30T15:13:48;4.97;;;4.47;;
18407;SDS011;9330;52.210;21.174;2022-09-30T15:16:22;3.78;;;3.47;;
18407;SDS011;9330;52.210;21.174;2022-09-30T15:18:50;5.35;;;4.00;;
18407;SDS011;9330;52.210;21.174;2022-09-30T15:21:17;6.38;;;4.13;;
18407;SDS011;9330;52.210;21.174;2022-09-30T15:23:47;5.22;;;4.72;;
18407;SDS011;9330;52.210;21.174;2022-09-30T15:26:16;5.78;;;5.28;;
18407;SDS011;9330;52.210;21.174;2022-09-30T15:28:44;7.13;;;5.50;;
18407;SDS011;9330;52.210;21.174;2022-09-30T15:31:16;6.10;;;5.47;;
18407;SDS011;9330;52.210;21.174;2022-09-30T15:33:48;7.47;;;6.78;;
18407;SDS011;9330;52.210;21.174;2022-09-30T15:36:25;10.18;;;7.93;;
18407;SDS011;9330;52.210;21.174;2022-09-30T15:38:53;9.73;;;7.70;;
18407;SDS011;9330;52.210;21.174;2022-09-30T15:41:20;8.13;;;7.32;;
18407;SDS011;9330;52.210;21.174;2022-09-30T15:43:48;8.30;;;7.40;;
18407;SDS011;9330;52.210;21.174;2022-09-30T15:46:25;8.02;;;6.88;;
18407;SDS011;9330;52.210;21.174;2022-09-30T15:48:54;8.20;;;7.13;;
18407;SDS011;9330;52.210;21.174;2022-09-30T15:51:34;6.97;;;6.28;;
18407;SDS011;9330;52.210;21.174;2022-09-30T15:56:58;6.13;;;5.53;;
18407;SDS011;9330;52.210;21.174;2022-09-30T16:02:28;7.82;;;7.00;;
18407;SDS011;9330;52.210;21.174;2022-09-30T16:04:56;7.85;;;6.40;;
18407;SDS011;9330;52.210;21.174;2022-09-30T16:07:26;7.32;;;6.43;;
18407;SDS011;9330;52.210;21.174;2022-09-30T16:09:56;7.45;;;6.53;;
18407;SDS011;9330;52.210;21.174;2022-09-30T16:12:24;7.95;;;6.85;;
18407;SDS011;9330;52.210;21.174;2022-09-30T16:14:55;8.35;;;7.45;;
18407;SDS011;9330;52.210;21.174;2022-09-30T16:17:25;8.57;;;7.25;;
18407;SDS011;9330;52.210;21.174;2022-09-30T16:19:56;10.60;;;9.15;;
18407;SDS011;9330;52.210;21.174;2022-09-30T16:22:36;9.68;;;8.18;;
18407;SDS011;9330;52.210;21.174;2022-09-30T16:25:17;9.05;;;7.43;;
18407;SDS011;9330;52.210;21.174;2022-09-30T16:27:47;9.55;;;7.88;;